Weather observations for the past three days for
Andrews County Airport
Metric (Imperial)
Date Time (cdt) Wind (kph) Vis. (km) Weather Sky Cond. Temperature (ºC) Relative Humidity Wind Chill (°C) Heat Index (°C) Pressure Precipitation (cm)
Air Dwpt 6 hour altimeter (cm) sea level (mb) 1 hr 3 hr 6 hr
Max. Min.
06 03:15 SW 11 16.09 Fair CLR 19.2 6.6 44% 75.84 0.0
06 02:55 SW 9 16.09 Fair CLR 19.6 6.5 43% 75.84 0.0
06 02:35 SW 9 16.09 Fair CLR 18.7 7.1 47% 75.84 0.0
06 02:15 S 9 16.09 Fair CLR 18.1 7.8 51% 75.84 0.0
06 01:55 S 9 16.09 Fair CLR 17.7 8.4 55% 75.84 0.0
06 01:35 S 9 16.09 Fair CLR 17.9 8.4 54% 75.87 0.0
06 01:15 S 15 16.09 Fair CLR 17.4 8.8 57% 75.87 0.0
06 00:55 S 6 16.09 Fair CLR 18.1 8.2 25.1 18 53% 75.84 0.0
06 00:35 S 7 16.09 Fair CLR 18.7 8.1 50% 75.84 0.0
06 00:15 SW 6 16.09 Fair CLR 18.7 8.1 50% 75.82 0.0
05 23:55 S 11 16.09 Fair CLR 18.7 7.9 50% 75.82 0.0
05 23:35 SW 6 16.09 Fair CLR 19.6 7.6 46% 75.82 0.0
05 23:15 W 7 16.09 Fair CLR 19.4 7.6 47% 75.79 0.0
05 22:55 W 6 16.09 Fair CLR 20.1 7.1 43% 75.77 0.0
05 22:35 NW 11 16.09 Fair CLR 20.5 6.7 41% 75.74 0.0
05 22:15 NW 11 16.09 Fair CLR 21.7 5.7 35% 75.74 0.0
05 21:55 Calm 16.09 Fair CLR 21.3 6.3 38% 75.74 0.0
05 21:35 Calm 16.09 Fair CLR 22.6 5.5 33% 75.72 0.0
05 21:15 NW 11 16.09 Fair CLR 22.3 5.8 34% 75.72 0.0
05 20:55 W 7 16.09 Fair CLR 22.9 5.8 33% 75.72 0.0
05 20:35 SW 7 16.09 Fair CLR 23.1 5.7 33% 75.72 0.0
05 20:15 SW 7 16.09 Fair CLR 24.1 5.3 30% 25 75.72 0.0
05 19:55 W 13 16.09 Fair CLR 24.7 5 28% 25 75.72 0.0
05 19:35 W 17 16.09 Fair CLR 25.1 5 27% 25 75.72 0.0
05 18:55 W 22 G 35 16.09 Fair CLR 24.5 4.3 26.7 24.5 27% 25 75.74 0.0
05 18:35 W 28 G 41 16.09 Fair CLR 24.7 3.8 26% 25 75.74 0.0
05 18:15 W 22 G 41 16.09 Fair CLR 25 3.6 25% 25 75.74 0.0
05 17:55 W 26 G 35 16.09 Fair CLR 25.1 3.8 25% 25 75.72 0.0
05 17:35 W 15 G 30 16.09 Fair CLR 25.1 4.2 26% 25 75.72 0.0
05 17:15 W 26 G 33 16.09 Fair CLR 25.4 3.8 25% 25 75.74 0.0
05 16:55 W 28 16.09 Fair CLR 25.9 3.3 23% 26 75.74 0.0
05 16:35 W 26 G 35 16.09 Fair CLR 26.1 3.1 23% 26 75.77 0.0
05 16:15 W 15 16.09 Fair CLR 26.3 3.7 23% 26 75.74 0.0
05 15:55 W 19 G 28 16.09 Fair CLR 25.9 3.8 24% 26 75.79 0.0
05 15:35 W 19 G 26 16.09 Fair CLR 25.7 3.9 24% 25 75.79 0.0
05 15:15 W 28 G 41 16.09 Fair CLR 25.6 3 23% 25 75.79 0.0
05 14:55 W 26 G 50 16.09 Fair CLR 25.8 1.7 21% 25 75.79 0.0
05 14:35 W 31 G 44 16.09 Fair CLR 26.2 1.5 20% 26 75.82 0.0
05 14:15 W 26 G 39 16.09 Fair CLR 26.2 2.5 22% 26 75.82 0.0
05 13:55 W 30 G 50 16.09 Fair CLR 26 2.8 22% 26 75.82 0.0
05 13:35 W 39 G 48 16.09 Fair and Breezy CLR 26.7 2.9 21% 26 75.84 0.0
05 13:15 W 22 G 39 16.09 Fair CLR 26 2.8 22% 26 75.84 0.0
05 12:55 W 19 G 33 16.09 Fair CLR 26.6 3.2 26.6 18 22% 26 75.84 0.0
05 12:15 W 24 G 33 16.09 Fair CLR 26 2.7 22% 26 75.84 0.0
05 11:55 W 24 G 35 16.09 Fair CLR 26 2.4 22% 26 75.84 0.0
05 11:35 W 24 16.09 Fair CLR 26.1 2.5 22% 26 75.84 0.0
05 11:15 W 22 G 30 16.09 Fair CLR 25.6 2.4 22% 25 75.82 0.0
05 10:55 W 17 G 37 16.09 Fair CLR 25.3 2.1 22% 25 75.82 0.0
05 10:35 W 22 G 35 16.09 Fair CLR 25.4 1.9 22% 25 75.82 0.0
05 10:15 W 19 G 33 16.09 Fair CLR 25.4 2.2 22% 25 75.79 0.0
05 09:55 NW 17 16.09 Fair CLR 24.6 2.9 24% 25 75.79 0.0
05 09:35 NW 13 16.09 Fair CLR 24 3 25% 25 75.77 0.0
05 09:15 W 11 16.09 Fair CLR 22.6 3.8 29% 75.77 0.0
05 08:55 W 11 16.09 Fair CLR 21.8 3.3 30% 75.77 0.0
05 08:35 W 7 16.09 Fair CLR 21.2 4 32% 75.74 0.0
05 08:15 W 17 16.09 Fair CLR 20.1 4.6 36% 75.74 0.0
05 07:55 W 13 16.09 Fair CLR 18.8 6.2 44% 75.72 0.0
05 07:35 SW 9 16.09 Fair CLR 18.1 7.3 49% 75.69 0.0
05 07:15 SW 15 16.09 Fair CLR 18.7 6.5 45% 75.69 0.0
05 06:55 SW 17 16.09 Fair CLR 17.9 8.1 22.8 17.3 53% 75.67 0.0
05 06:35 SW 13 16.09 Fair CLR 17.3 7.4 52% 75.67 0.0
05 06:15 SW 13 16.09 Fair CLR 18.7 6.4 45% 75.64 0.0
05 05:55 SW 13 16.09 Fair CLR 19.1 6.6 44% 75.64 0.0
05 05:15 SW 17 16.09 Fair CLR 19.6 9.1 51% 75.67 0.0
05 04:55 SW 19 16.09 Fair CLR 19.5 8.9 51% 75.64 0.0
05 04:35 SW 19 16.09 Fair CLR 20.2 4.5 36% 75.64 0.0
05 04:15 SW 17 16.09 Fair CLR 19.5 6.2 42% 75.62 0.0
05 03:55 SW 17 16.09 Fair CLR 19.1 7.5 47% 75.64 0.0
05 03:35 SW 17 16.09 Fair CLR 19.7 6.9 44% 75.64 0.0
05 03:15 SW 15 16.09 Fair CLR 19.9 5.2 38% 75.64 0.0
05 02:55 SW 13 16.09 Fair CLR 19.7 3.8 35% 75.64 0.0
05 02:35 SW 13 16.09 Fair CLR 20.3 3.1 32% 75.67 0.0
05 02:15 SW 15 G 26 16.09 Fair CLR 21.2 2.7 30% 75.67 0.0
05 01:55 SW 17 16.09 Fair CLR 22.1 2.5 28% 75.67 0.0
05 01:35 SW 17 16.09 Fair CLR 22.1 2.6 28% 75.67 0.0
05 01:15 W 13 16.09 Fair CLR 22.6 2.7 27% 75.67 0.0
05 00:55 W 13 16.09 Fair CLR 22.8 2.6 29.6 22.8 27% 75.69 0.0
05 00:35 SW 17 16.09 Fair CLR 23.1 2.3 26% 75.69 0.0
05 00:15 SW 13 16.09 Fair CLR 23.1 2.7 26% 75.69 0.0
04 23:55 SW 17 16.09 Fair CLR 23.7 2.2 24% 75.69 0.0
04 23:35 W 13 16.09 Fair CLR 23.8 2.5 25% 75.69 0.0
04 23:15 W 17 16.09 Fair CLR 23.5 2.5 25% 75.69 0.0
04 22:55 W 13 16.09 Fair CLR 23.3 2.8 26% 75.69 0.0
04 22:35 SW 9 16.09 Fair CLR 23.1 3.2 27% 75.69 0.0
04 22:15 SW 11 16.09 Fair CLR 24.6 1.4 22% 25 75.69 0.0
04 21:55 W 15 16.09 Fair CLR 25.1 1.2 21% 25 75.67 0.0
04 21:35 W 15 16.09 Fair CLR 25.7 0.7 19% 25 75.67 0.0
04 21:15 W 17 16.09 Fair CLR 26 0.4 19% 25 75.64 0.0
04 20:55 W 11 16.09 Fair CLR 26 0.3 19% 25 75.62 0.0
04 20:35 SW 15 G 28 16.09 Fair CLR 27 -0.5 16% 26 75.59 0.0
04 20:15 SW 17 16.09 Fair CLR 27.7 -1.1 15% 26 75.59 0.0
04 19:55 W 20 16.09 Fair CLR 28.2 -1.6 14% 27 75.59 0.0
04 19:35 W 26 G 46 16.09 Fair CLR 28.8 -2.5 13% 27 75.59 0.0
04 19:15 SW 26 G 44 16.09 Fair CLR 29.2 -2.5 12% 28 75.62 0.0
04 18:55 SW 19 G 28 16.09 Fair CLR 29.7 -1.5 30.5 27.6 13% 28 75.64 0.0
04 18:35 W 24 G 41 16.09 Fair CLR 29 -2.2 13% 27 75.64 0.0
04 18:15 W 30 G 37 16.09 Fair CLR 29.1 -1.8 13% 27 75.64 0.0
04 17:55 W 30 G 41 16.09 Fair CLR 29.4 -2.5 12% 28 75.64 0.0
04 17:35 SW 28 G 50 16.09 Fair CLR 29.5 -3.1 12% 28 75.67 0.0
04 17:15 W 31 G 46 16.09 Fair CLR 30.1 -1.8 12% 28 75.69 0.0
04 16:55 SW 28 G 43 16.09 Fair CLR 29.9 -0.3 14% 28 75.69 0.0
04 16:35 W 22 G 41 16.09 Fair CLR 29.8 0.2 15% 28 75.72 0.0
04 16:15 W 28 G 48 16.09 Fair CLR 29.3 1.9 17% 28 75.74 0.0
04 15:55 W 24 G 43 16.09 Fair CLR 28.9 2.7 19% 27 75.79 0.0
04 15:35 SW 22 G 35 16.09 Fair CLR 28 3.3 20% 27 75.79 0.0
04 15:15 SW 28 G 44 16.09 Fair CLR 28.2 3.5 20% 27 75.82 0.0
04 14:55 W 26 G 43 16.09 Fair CLR 27.9 4.6 23% 27 75.84 0.0
04 14:35 SW 28 G 37 16.09 Fair CLR 28.3 5.2 23% 27 75.87 0.0
04 14:15 W 26 G 37 16.09 Fair CLR 28.2 6.3 25% 27 75.87 0.0
04 13:55 SW 26 G 37 16.09 Fair CLR 27.7 6.9 27% 27 75.87 0.0
04 13:35 SW 28 G 37 16.09 Fair CLR 28.4 6.8 26% 27 75.92 0.0
04 13:15 W 28 G 39 16.09 Fair CLR 28.4 7.3 26% 27 75.92 0.0
04 12:55 W 26 G 35 16.09 Fair CLR 28.6 7.5 28.8 15.1 26% 27 75.92 0.0
04 12:35 W 19 G 35 16.09 Fair CLR 28.6 7.4 26% 27 75.95 0.0
04 12:15 W 22 G 30 16.09 Fair CLR 28.4 8.1 28% 27 75.97 0.0
04 11:55 W 20 G 30 16.09 Fair CLR 27.8 8.3 29% 27 75.97 0.0
04 11:35 W 20 G 28 16.09 Fair CLR 27.6 9.4 32% 27 75.97 0.0
04 11:15 W 19 G 26 16.09 Fair CLR 26.6 9.5 34% 26 75.97 0.0
04 10:55 W 20 G 28 16.09 Fair CLR 26.2 9.6 35% 26 75.97 0.0
04 10:35 SW 17 16.09 Fair CLR 25.2 9.9 38% 26 76 0.0
04 10:15 SW 19 16.09 Fair CLR 23.7 10 42% 76.02 0.0
04 09:55 SW 20 16.09 Fair CLR 22.3 9.8 45% 76 0.0
04 09:35 SW 19 16.09 Fair CLR 21.1 9.6 48% 76 0.0
04 09:15 SW 22 16.09 Fair CLR 20.3 9.6 50% 76 0.0
04 08:55 SW 22 16.09 Fair CLR 18.6 9.5 56% 75.97 0.0
04 08:35 SW 22 16.09 Fair CLR 17.4 9.5 60% 75.97 0.0
04 08:15 SW 20 16.09 Fair CLR 16.2 9.3 64% 75.97 0.0
04 07:55 SW 17 16.09 Fair CLR 15.6 9.3 66% 75.92 0.0
04 07:35 SW 17 16.09 Fair CLR 15.5 9.2 66% 75.95 0.0
04 07:15 SW 19 16.09 Fair CLR 15.2 9.1 67% 75.92 0.0
04 06:55 SW 17 16.09 Fair CLR 15.1 9.2 17 15.1 68% 75.9 0.0
04 06:35 S 13 16.09 Fair CLR 15.2 9.1 67% 75.9 0.0
04 06:15 S 15 16.09 Fair CLR 15.4 9.1 66% 75.9 0.0
04 05:55 S 19 16.09 Fair CLR 15.5 9.1 66% 75.9 0.0
04 05:35 SW 19 16.09 Fair CLR 15.5 9.1 66% 75.9 0.0
04 05:15 SW 19 16.09 Fair CLR 15.7 9 65% 75.92 0.0
04 04:55 SW 20 16.09 Fair CLR 15.8 9 64% 75.92 0.0
04 04:35 SW 19 16.09 Fair CLR 16 9 63% 75.95 0.0
04 04:15 S 17 16.09 Fair CLR 16 9 63% 75.97 0.0
04 03:55 S 15 16.09 Fair CLR 16.1 9 63% 75.97 0.0
04 03:35 S 15 16.09 Fair CLR 16.1 9.1 63% 76 0.0
04 03:15 S 13 16.09 Fair CLR 16.2 9.2 63% 76.05 0.0
04 02:35 S 17 16.09 Fair CLR 16.3 9.2 63% 76.05 0.0
04 02:15 S 15 16.09 Fair CLR 16.3 9.1 63% 76.1 0.0
04 01:55 S 19 G 26 16.09 Fair CLR 16.5 9.1 62% 76.1 0.0
04 01:35 S 13 16.09 Fair CLR 16.7 9.1 61% 76.12 0.0
04 01:15 S 19 G 28 16.09 Fair CLR 17 8.9 59% 76.12 0.0
04 00:55 S 22 G 30 16.09 Fair CLR 17 8.7 23.5 17 58% 76.12 0.0
04 00:35 S 19 16.09 Fair CLR 17.3 8.7 57% 76.15 0.0
04 00:15 S 17 G 30 16.09 Fair CLR 17.7 8.5 55% 76.15 0.0
03 23:55 S 19 16.09 Fair CLR 18 8.3 53% 76.15 0.0
03 23:35 S 20 16.09 Fair CLR 18.3 8.3 52% 76.17 0.0
03 23:15 S 22 G 28 16.09 Fair CLR 18.5 8.2 51% 76.2 0.0
03 22:55 S 20 16.09 Fair CLR 19 8.2 50% 76.2 0.0
03 22:35 S 17 16.09 Fair CLR 19.2 8.2 49% 76.17 0.0
03 22:15 S 20 16.09 Fair CLR 19.5 8 48% 76.17 0.0
03 21:55 S 15 16.09 Fair CLR 19.8 7.7 46% 76.17 0.0
03 21:35 S 15 16.09 Fair CLR 20.1 7.4 44% 76.17 0.0
03 21:15 S 17 16.09 Fair CLR 20.5 7.2 42% 76.15 0.0
03 20:55 S 17 16.09 Fair CLR 20.8 7.2 42% 76.15 0.0
03 20:35 S 15 16.09 Fair CLR 21.1 7.1 40% 76.15 0.0
03 20:15 S 13 16.09 Fair CLR 21.7 6.8 38% 76.15 0.0
03 19:55 S 15 16.09 Fair CLR 22.5 6.2 35% 76.15 0.0
03 19:35 S 22 16.09 Fair CLR 23.2 6.1 33% 76.15 0.0
03 19:15 SW 20 16.09 Fair CLR 23.5 5.8 32% 76.17 0.0
03 18:55 S 22 G 30 16.09 Fair CLR 23.2 5.9 24.8 21.6 33% 76.2 0.0
03 18:35 S 22 G 28 16.09 Fair CLR 23.7 6.1 32% 76.2 0.0
03 18:15 S 20 16.09 Fair CLR 23.3 6 33% 76.23 0.0
03 17:55 S 22 G 33 16.09 Fair CLR 24.2 6.2 31% 25 76.23 0.0
03 17:35 SW 17 G 22 16.09 Fair CLR 23.9 6.2 32% 25 76.25 0.0
03 17:15 S 24 G 37 16.09 Fair CLR 23.3 5.7 32% 76.28 0.0
03 16:55 S 24 G 35 16.09 Fair CLR 24.8 5.9 30% 25 76.28 0.0
03 16:35 SW 22 G 30 16.09 Fair CLR 23.5 5.8 32% 76.3 0.0
03 16:15 S 20 G 28 16.09 Fair CLR 23.6 5.7 32% 76.33 0.0
03 15:55 S 17 16.09 Fair CLR 24 5.7 31% 25 76.38 0.0
03 15:35 S 15 G 28 16.09 Fair CLR 23.6 5.9 32% 76.4 0.0
03 15:15 S 13 16.09 Fair CLR 23.1 5.9 33% 76.43 0.0
03 14:55 S 20 G 37 16.09 Fair CLR 23.5 6 32% 76.45 0.0
03 14:35 S 20 G 33 16.09 Fair CLR 23.5 6.3 33% 76.45 0.0
03 14:15 S 24 G 35 16.09 Fair CLR 23.7 6.8 34% 76.5 0.0
03 13:55 Calm 16.09 Fair CLR 22.4 6.2 35% 76.53 0.0
03 13:35 S 24 G 39 16.09 Fair CLR 22.5 6.4 35% 76.56 0.0
03 13:15 S 20 G 35 16.09 Fair CLR 22 6.3 36% 76.58 0.0
03 12:55 S 19 G 37 16.09 Fair CLR 21.5 6.5 21.5 10.7 38% 76.61 0.0
03 12:35 S 24 G 33 16.09 Fair CLR 21.3 6.9 39% 76.66 0.0
03 12:15 S 22 G 31 16.09 Fair CLR 20.8 6.5 40% 76.66 0.0
03 11:55 S 22 16.09 Fair CLR 20.5 6.8 41% 76.68 0.0
03 11:35 S 24 G 31 16.09 Fair CLR 20.4 7.3 43% 76.71 0.0
03 11:15 S 24 G 31 16.09 Fair CLR 19.6 7.3 45% 76.71 0.0
03 10:55 S 24 G 31 16.09 Fair CLR 19.2 7.3 46% 76.73 0.0
03 10:35 S 19 G 28 16.09 Fair CLR 18.6 7.9 50% 76.73 0.0
03 10:15 S 22 G 35 16.09 Fair CLR 18 7.6 51% 76.73 0.0
03 09:55 S 26 16.09 Fair CLR 17.5 7.7 53% 76.73 0.0
03 09:35 S 26 16.09 Fair CLR 16.7 7.7 56% 76.73 0.0
03 09:15 S 19 G 33 16.09 Fair CLR 16.1 7.7 58% 76.73 0.0
03 08:55 S 20 G 26 16.09 Fair CLR 15.4 7.7 60% 76.73 0.0
03 08:35 S 17 16.09 Fair CLR 14.5 8 65% 76.73 0.0
03 08:15 S 11 16.09 Fair CLR 13.1 8.1 72% 76.71 0.0
03 07:55 S 9 16.09 Fair CLR 12.2 7.5 73% 76.71 0.0
03 07:35 S 11 16.09 Fair CLR 11.4 7.5 77% 76.71 0.0
03 07:15 S 9 16.09 Fair CLR 11 7.6 80% 76.68 0.0
03 06:55 S 7 16.09 Fair CLR 10.9 7.5 13.2 10.7 80% 76.66 0.0
03 06:35 S 9 16.09 Fair CLR 11 7.6 80% 76.66 0.0
03 06:15 S 9 16.09 Fair CLR 11.1 7.5 79% 76.66 0.0
03 05:55 S 11 16.09 Fair CLR 11.5 7.4 76% 76.66 0.0
03 05:35 S 13 16.09 Fair CLR 11.7 7.4 75% 76.66 0.0
03 05:15 S 13 16.09 Fair CLR 12 7.3 73% 76.66 0.0
03 04:55 S 15 16.09 Fair CLR 12 7.3 73% 76.66 0.0
03 04:35 S 15 16.09 Fair CLR 12.1 7.3 73% 76.68 0.0
03 04:15 S 13 16.09 Fair CLR 12.2 7.3 72% 76.68 0.0
03 03:55 S 9 16.09 Fair CLR 11.9 7.7 76% 76.68 0.0
03 03:35 S 7 16.09 Fair CLR 11.7 8 78% 76.68 0.0
Date Time (cdt) Wind (kph) Vis. (km) Weather Sky Cond. Air Dwpt Max. Min. Relative Humidity Wind Chill (°C) Heat Index (°C) altimeter (cm) sea level (mb) 1 hr 3 hr 6 hr
6 hour
Temperature (ºC) Pressure Precipitation (cm)